Terminal Aerodrome Forecast
Issued by NWS Paducah, KY

Home | Current Version | Previous Version | Text Only | Print | Product List | Glossary On
Versions: 1 2 3 4 5 6 7 8 9 10 11 12 13 14 15 16 17 18 19
000
FTUS43 KPAH 190937 AAB
TAFPAH
TAF AMD
KPAH 190937Z 1910/2006 10006KT 4SM -SHRA BR SCT015 OVC030
      TEMPO 1910/1912 2SM SHRA BR OVC015
     FM191200 13005KT 3SM -TSRA BR OVC012CB
     FM191900 23006KT P6SM OVC050
     FM200100 23006KT P6SM VCTS BKN035CB=

USA.gov is the U.S. government's official web portal to all federal, state and local government web resources and services.